createdAt,value
2019-04-11T00:02:24.745Z,55.00
2019-04-11T00:04:58.763Z,55.13
2019-04-11T00:07:30.651Z,56.03
2019-04-11T00:10:02.416Z,56.13
2019-04-11T00:12:34.650Z,56.01
2019-04-11T00:15:06.553Z,56.03
2019-04-11T00:17:38.388Z,56.08
2019-04-11T00:20:10.268Z,55.86
2019-04-11T00:22:42.150Z,55.78
2019-04-11T00:25:13.906Z,55.94
2019-04-11T00:27:45.772Z,56.19
2019-04-11T00:30:17.957Z,56.10
2019-04-11T00:32:49.875Z,56.42
2019-04-11T00:35:21.801Z,56.50
2019-04-11T00:37:53.726Z,56.26
2019-04-11T00:40:25.484Z,56.67
2019-04-11T00:42:57.407Z,56.76
2019-04-11T00:45:29.718Z,56.52
2019-04-11T00:48:01.697Z,56.46
2019-04-11T00:50:33.465Z,56.76
2019-04-11T00:53:05.593Z,56.73
2019-04-11T00:55:37.654Z,57.18
2019-04-11T00:58:09.701Z,57.00
2019-04-11T01:00:41.491Z,57.06
2019-04-11T01:03:13.809Z,57.20
2019-04-11T01:05:45.833Z,57.76
2019-04-11T01:08:19.822Z,57.92
2019-04-11T01:10:51.852Z,57.88
2019-04-11T01:13:23.844Z,58.13
2019-04-11T01:16:04.973Z,58.03
2019-04-11T01:18:38.242Z,58.22
2019-04-11T01:21:10.339Z,58.31
2019-04-11T01:23:42.918Z,58.37
2019-04-11T01:26:14.909Z,58.80
2019-04-11T01:28:47.001Z,58.42
2019-04-11T01:31:21.619Z,58.76
2019-04-11T01:33:54.530Z,59.03
2019-04-11T01:36:26.956Z,59.56
2019-04-11T01:39:01.694Z,59.53
2019-04-11T01:41:35.015Z,59.69
2019-04-11T01:44:07.542Z,59.53
2019-04-11T01:46:40.427Z,59.96
2019-04-11T01:49:19.811Z,59.92
2019-04-11T01:51:51.507Z,59.90
2019-04-11T01:54:23.784Z,60.25
2019-04-11T01:56:55.877Z,60.68
2019-04-11T01:59:27.684Z,60.97
2019-04-11T02:02:27.235Z,60.37
2019-04-11T02:05:04.900Z,60.23
2019-04-11T02:07:36.759Z,60.13
2019-04-11T02:10:08.622Z,60.51
2019-04-11T02:12:41.540Z,60.85
2019-04-11T02:15:14.360Z,61.24
2019-04-11T02:17:46.740Z,61.30
2019-04-11T02:20:18.803Z,61.08
2019-04-11T02:23:13.564Z,61.77
2019-04-11T02:26:17.094Z,62.12
2019-04-11T02:28:49.139Z,62.26
2019-04-11T02:31:22.854Z,62.28
2019-04-11T02:33:57.246Z,62.43
2019-04-11T02:36:30.035Z,62.88
2019-04-11T02:39:08.047Z,63.52
2019-04-11T02:41:38.057Z,63.33
2019-04-11T02:44:28.677Z,63.43
2019-04-11T02:46:57.074Z,63.84
2019-04-11T02:49:17.091Z,64.07
2019-04-11T02:51:49.472Z,64.09
2019-04-11T02:54:26.168Z,64.17
2019-04-11T02:56:57.706Z,64.75
2019-04-11T02:59:30.561Z,64.53
2019-04-11T03:02:02.405Z,64.44
2019-04-11T03:04:34.766Z,64.18
2019-04-11T03:07:08.000Z,64.45
2019-04-11T03:09:41.516Z,64.24
2019-04-11T03:12:15.392Z,64.36
2019-04-11T03:15:05.425Z,64.43
2019-04-11T03:17:26.563Z,64.88
2019-04-11T03:20:08.970Z,65.41
2019-04-11T03:22:27.615Z,65.65
2019-04-11T03:25:00.306Z,65.36
2019-04-11T03:27:32.661Z,65.32
2019-04-11T03:30:10.743Z,64.83
2019-04-11T03:38:13.819Z,65.36
2019-04-11T03:40:43.872Z,65.55
2019-04-11T03:43:10.731Z,65.74
2019-04-11T03:45:47.976Z,65.78
2019-04-11T03:48:19.720Z,66.37
2019-04-11T03:50:39.964Z,66.38
2019-04-11T03:53:12.482Z,66.70
2019-04-11T03:55:45.541Z,66.31
2019-04-11T03:58:19.672Z,66.40
2019-04-11T04:00:53.608Z,66.26
2019-04-11T04:03:28.904Z,66.12
2019-04-11T04:06:01.928Z,66.75
2019-04-11T04:08:36.177Z,67.33
2019-04-11T04:11:16.782Z,67.13
2019-04-11T04:14:03.697Z,67.34
2019-04-11T04:16:58.602Z,67.53
2019-04-11T04:20:04.898Z,67.22
2019-04-11T04:22:56.709Z,67.16
2019-04-11T04:25:29.040Z,67.64
2019-04-11T04:28:02.885Z,67.54
2019-04-11T04:30:36.163Z,67.91
2019-04-11T04:33:10.755Z,67.89
2019-04-11T04:35:44.791Z,67.72
2019-04-11T04:38:18.805Z,67.61
2019-04-11T04:41:07.260Z,67.93
2019-04-11T04:43:27.239Z,67.96
2019-04-11T04:46:17.381Z,67.75
2019-04-11T04:48:34.366Z,67.72
2019-04-11T04:51:09.190Z,68.43
2019-04-11T04:53:41.038Z,68.28
2019-04-11T04:56:13.403Z,68.33
2019-04-11T04:58:47.092Z,67.90
2019-04-11T05:01:21.706Z,68.38
2019-04-11T05:03:54.032Z,68.36
2019-04-11T05:06:26.245Z,67.63
2019-04-11T05:08:58.241Z,67.43
2019-04-11T05:11:30.554Z,67.63
2019-04-11T05:14:03.011Z,67.23
2019-04-11T05:16:35.738Z,67.53
2019-04-11T05:19:08.641Z,67.27
2019-04-11T05:21:41.446Z,67.44
2019-04-11T05:24:14.510Z,67.43
2019-04-11T05:26:46.351Z,67.12
2019-04-11T05:29:18.118Z,67.17
2019-04-11T05:31:51.082Z,67.22
2019-04-11T05:34:23.817Z,67.09
2019-04-11T05:36:55.804Z,67.10
2019-04-11T05:39:27.687Z,67.21
2019-04-11T05:41:59.721Z,67.08
2019-04-11T05:44:32.625Z,66.66
2019-04-11T05:47:06.473Z,66.45
2019-04-11T05:50:07.593Z,66.09
2019-04-11T05:52:36.702Z,66.25
2019-04-11T05:55:11.854Z,66.36
2019-04-11T05:57:44.935Z,66.12
2019-04-11T06:00:41.620Z,65.65
2019-04-11T06:03:13.555Z,65.55
2019-04-11T06:05:52.056Z,65.35
2019-04-11T06:08:27.213Z,65.12
2019-04-11T06:11:17.575Z,65.18
2019-04-11T06:14:07.452Z,65.09
2019-04-11T06:16:47.285Z,64.86
2019-04-11T06:19:22.911Z,64.65
2019-04-11T06:21:58.855Z,64.24
2019-04-11T06:25:06.092Z,64.38
2019-04-11T06:27:49.535Z,63.88
2019-04-11T06:30:38.651Z,63.58
2019-04-11T06:33:14.270Z,63.24
2019-04-11T06:36:13.908Z,63.18
2019-04-11T06:38:51.869Z,62.45
2019-04-11T06:41:46.504Z,62.19
2019-04-11T06:44:36.017Z,61.61
2019-04-11T06:47:21.017Z,61.54
2019-04-11T06:50:11.092Z,61.45
2019-04-11T06:52:43.362Z,61.76
2019-04-11T06:55:26.728Z,60.41
2019-04-11T06:58:04.678Z,60.21
2019-04-11T07:00:37.453Z,59.94
2019-04-11T07:03:18.848Z,60.45
2019-04-11T07:05:42.759Z,59.63
2019-04-11T07:08:16.013Z,58.60
2019-04-11T07:10:53.142Z,58.62
2019-04-11T07:13:35.205Z,58.13
2019-04-11T07:16:06.946Z,58.45
2019-04-11T07:18:57.526Z,56.16
2019-04-11T07:21:35.415Z,57.09
2019-04-11T07:24:28.093Z,55.25
2019-04-11T07:27:09.489Z,55.64
2019-04-11T07:29:58.873Z,55.11
2019-04-11T07:32:30.845Z,55.64
2019-04-11T07:35:21.459Z,54.48
2019-04-11T07:37:58.244Z,52.77
2019-04-11T07:41:06.542Z,51.02
2019-04-11T07:43:41.156Z,50.79
2019-04-11T07:46:32.848Z,50.20
2019-04-11T07:49:08.413Z,48.18
2019-04-11T07:51:43.472Z,48.63
2019-04-11T07:54:18.043Z,47.42
2019-04-11T07:57:08.826Z,46.69
2019-04-11T08:00:03.776Z,46.56
2019-04-11T08:03:01.973Z,46.20
2019-04-11T08:05:58.861Z,44.85
2019-04-11T08:09:09.662Z,45.06
2019-04-11T08:11:47.783Z,45.07
2019-04-11T08:14:42.466Z,43.92
2019-04-11T08:17:28.120Z,42.81
2019-04-11T08:20:10.996Z,42.69
2019-04-11T08:22:47.971Z,42.81
2019-04-11T08:25:37.647Z,43.06
2019-04-11T08:28:13.617Z,43.00
2019-04-11T08:31:03.477Z,42.25
2019-04-11T08:33:36.563Z,42.02
2019-04-11T08:36:36.403Z,41.91
2019-04-11T08:39:19.108Z,41.51
2019-04-11T08:42:09.771Z,41.61
2019-04-11T08:44:43.829Z,41.23
2019-04-11T08:47:18.329Z,41.69
2019-04-11T08:49:52.331Z,41.00
2019-04-11T08:52:47.014Z,40.12
2019-04-11T08:55:23.221Z,39.74
2019-04-11T08:58:00.314Z,38.77
2019-04-11T09:00:42.291Z,38.73
2019-04-11T09:04:02.105Z,38.50
2019-04-11T09:06:30.701Z,38.30
2019-04-11T09:09:20.892Z,38.52
2019-04-11T09:11:56.210Z,38.76
2019-04-11T09:14:50.642Z,38.71
2019-04-11T09:17:26.159Z,38.64
2019-04-11T09:20:29.770Z,38.38
2019-04-11T09:23:13.442Z,37.21
2019-04-11T09:26:16.345Z,37.50
2019-04-11T09:28:51.572Z,38.19
2019-04-11T09:31:43.733Z,38.64
2019-04-11T09:34:41.911Z,38.68
2019-04-11T09:37:42.928Z,38.91
2019-04-11T09:40:32.443Z,38.74
2019-04-11T09:43:26.162Z,37.20
2019-04-11T09:46:17.059Z,37.58
2019-04-11T09:49:12.066Z,36.27
2019-04-11T09:52:03.053Z,36.44
2019-04-11T09:55:06.569Z,36.23
2019-04-11T09:57:41.944Z,34.12
2019-04-11T10:00:31.704Z,34.49
2019-04-11T10:03:34.694Z,34.32
2019-04-11T10:06:25.382Z,34.35
2019-04-11T10:08:59.727Z,35.01
2019-04-11T10:11:48.957Z,35.76
2019-04-11T10:14:21.725Z,36.20
2019-04-11T10:17:11.255Z,36.27
2019-04-11T10:19:51.966Z,36.74
2019-04-11T10:22:48.996Z,37.56
2019-04-11T10:25:28.895Z,36.04
2019-04-11T10:28:29.500Z,36.68
2019-04-11T10:31:22.410Z,37.05
2019-04-11T10:34:17.452Z,37.28
2019-04-11T10:37:04.400Z,37.12
2019-04-11T10:39:55.461Z,37.52
2019-04-11T10:42:28.622Z,36.87
2019-04-11T10:45:26.742Z,35.83
2019-04-11T10:48:06.401Z,35.94
2019-04-11T10:50:56.156Z,36.43
2019-04-11T10:53:28.079Z,36.20
2019-04-11T10:56:30.658Z,36.70
2019-04-11T10:59:05.006Z,35.67
2019-04-11T11:01:54.185Z,36.60
2019-04-11T11:04:45.968Z,36.34
2019-04-11T11:07:24.666Z,35.89
2019-04-11T11:10:11.255Z,35.34
2019-04-11T11:13:01.406Z,35.63
2019-04-11T11:15:52.093Z,36.02
2019-04-11T11:19:14.989Z,34.83
2019-04-11T11:21:29.753Z,34.80
2019-04-11T11:24:05.447Z,35.46
2019-04-11T11:26:38.891Z,34.90
2019-04-11T11:29:45.343Z,35.08
2019-04-11T11:32:29.494Z,35.21
2019-04-11T11:35:22.442Z,35.31
2019-04-11T11:38:06.032Z,34.92
2019-04-11T11:40:56.205Z,34.80
2019-04-11T11:43:33.078Z,35.69
2019-04-11T11:46:25.708Z,36.02
2019-04-11T11:49:00.712Z,35.88
2019-04-11T11:51:45.754Z,36.41
2019-04-11T11:54:24.392Z,35.92
2019-04-11T11:56:58.234Z,36.36
2019-04-11T11:59:38.558Z,35.94
2019-04-11T12:02:19.098Z,36.02
2019-04-11T12:04:56.023Z,35.44
2019-04-11T12:07:41.016Z,35.31
2019-04-11T12:10:46.644Z,35.50
2019-04-11T12:13:40.730Z,35.37
2019-04-11T12:16:22.078Z,36.05
2019-04-11T12:19:07.305Z,35.85
2019-04-11T12:21:39.199Z,36.33
2019-04-11T12:24:30.130Z,36.24
2019-04-11T12:27:11.427Z,36.52
2019-04-11T12:30:07.056Z,36.25
2019-04-11T12:32:44.366Z,35.95
2019-04-11T12:35:27.307Z,35.95
2019-04-11T12:38:04.830Z,36.28
2019-04-11T12:41:04.604Z,35.73
2019-04-11T12:44:04.353Z,36.06
2019-04-11T12:47:12.978Z,36.23
2019-04-11T12:50:06.993Z,36.11
2019-04-11T12:52:54.216Z,36.47
2019-04-11T12:55:47.607Z,36.50
2019-04-11T12:58:27.718Z,36.65
2019-04-11T13:01:16.618Z,36.51
2019-04-11T13:04:05.844Z,36.33
2019-04-11T13:06:54.052Z,37.08
2019-04-11T13:09:47.538Z,36.90
2019-04-11T13:12:53.354Z,36.85
2019-04-11T13:15:54.613Z,36.56
2019-04-11T13:18:45.771Z,36.60
2019-04-11T13:21:24.524Z,36.75
2019-04-11T13:24:15.176Z,36.50
2019-04-11T13:27:04.081Z,36.19
2019-04-11T13:29:57.556Z,36.57
2019-04-11T13:32:48.339Z,36.45
2019-04-11T13:35:49.174Z,36.97
2019-04-11T13:38:27.331Z,36.50
2019-04-11T13:41:16.018Z,37.22
2019-04-11T13:44:06.768Z,37.03
2019-04-11T13:46:57.528Z,37.61
2019-04-11T13:49:51.425Z,37.27
2019-04-11T13:52:42.123Z,36.97
2019-04-11T13:55:22.142Z,36.89
2019-04-11T13:58:12.836Z,36.19
2019-04-11T14:00:48.791Z,36.46
2019-04-11T14:03:43.336Z,36.43
2019-04-11T14:06:20.097Z,36.21
2019-04-11T14:09:22.731Z,36.24
2019-04-11T14:12:04.756Z,36.10
2019-04-11T14:14:46.681Z,36.86
2019-04-11T14:17:43.250Z,36.31
2019-04-11T14:20:29.176Z,36.53
2019-04-11T14:23:18.937Z,36.44
2019-04-11T14:26:18.770Z,36.43
2019-04-11T14:28:57.841Z,35.88
2019-04-11T14:31:57.495Z,35.97
2019-04-11T14:35:06.205Z,36.21
2019-04-11T14:37:54.251Z,36.44
2019-04-11T14:40:42.059Z,36.55
2019-04-11T14:43:36.035Z,36.21
2019-04-11T14:46:26.636Z,36.27
2019-04-11T14:49:10.481Z,36.03
2019-04-11T14:52:17.786Z,36.12
2019-04-11T14:54:55.029Z,36.47
2019-04-11T14:57:46.903Z,36.31
2019-04-11T15:00:28.391Z,36.86
2019-04-11T15:03:24.763Z,36.60
2019-04-11T15:06:31.192Z,36.35
2019-04-11T15:09:29.712Z,37.04
2019-04-11T15:12:07.178Z,36.64
2019-04-11T15:14:56.616Z,36.48
2019-04-11T15:17:33.844Z,36.27
2019-04-11T15:20:33.920Z,36.86
2019-04-11T15:23:11.441Z,37.10
2019-04-11T15:26:08.784Z,36.74
2019-04-11T15:28:52.407Z,36.94
2019-04-11T15:31:39.316Z,37.14
2019-04-11T15:34:24.193Z,37.42
2019-04-11T15:37:11.601Z,37.39
2019-04-11T15:40:20.171Z,37.14
2019-04-11T15:43:25.828Z,37.76
2019-04-11T15:46:02.885Z,37.63
2019-04-11T15:49:02.465Z,37.93
2019-04-11T15:51:42.172Z,38.14
2019-04-11T15:54:34.832Z,38.36
2019-04-11T15:57:26.742Z,38.66
2019-04-11T16:00:22.352Z,38.98
2019-04-11T16:03:18.795Z,39.16
2019-04-11T16:06:07.992Z,39.01
2019-04-11T16:08:43.605Z,39.40
2019-04-11T16:11:43.196Z,39.39
2019-04-11T16:14:26.419Z,39.59
2019-04-11T16:20:00.048Z,40.67
2019-04-11T16:22:59.568Z,39.87
2019-04-11T16:25:31.724Z,39.44
2019-04-11T16:28:21.162Z,40.04
2019-04-11T16:30:57.741Z,40.46
2019-04-11T16:34:06.443Z,40.19
2019-04-11T16:36:48.414Z,40.55
2019-04-11T16:39:45.105Z,40.81
2019-04-11T16:42:26.284Z,40.95
2019-04-11T16:45:25.132Z,41.36
2019-04-11T16:48:04.429Z,41.18
2019-04-11T16:50:36.295Z,41.18
2019-04-11T16:53:10.322Z,41.07
2019-04-11T16:55:43.248Z,41.33
2019-04-11T16:58:19.318Z,41.48
2019-04-11T17:00:52.120Z,42.00
2019-04-11T17:03:24.787Z,42.03
2019-04-11T17:06:04.880Z,42.61
2019-04-11T17:08:44.571Z,42.84
2019-04-11T17:11:19.277Z,43.05
2019-04-11T17:13:51.302Z,43.19
2019-04-11T17:16:23.152Z,43.41
2019-04-11T17:18:55.020Z,43.61
2019-04-11T17:21:26.762Z,43.53
2019-04-11T17:23:58.997Z,43.44
2019-04-11T17:26:30.807Z,43.67
2019-04-11T17:29:02.591Z,43.80
2019-04-11T17:31:34.278Z,44.08
2019-04-11T17:34:06.205Z,44.26
2019-04-11T17:36:38.107Z,44.38
2019-04-11T17:39:10.002Z,44.56
2019-04-11T17:41:42.639Z,44.73
2019-04-11T17:44:15.830Z,44.90
2019-04-11T17:46:48.813Z,44.90
2019-04-11T17:49:20.684Z,44.95
2019-04-11T17:51:56.095Z,44.96
2019-04-11T17:54:27.358Z,45.27
2019-04-11T17:56:59.332Z,45.22
2019-04-11T17:59:32.096Z,45.16
2019-04-11T18:02:05.341Z,45.36
2019-04-11T18:04:37.191Z,45.32
2019-04-11T18:07:08.876Z,45.68
2019-04-11T18:09:40.748Z,45.45
2019-04-11T18:12:12.527Z,45.57
2019-04-11T18:14:44.498Z,45.41
2019-04-11T18:17:17.174Z,45.19
2019-04-11T18:19:49.200Z,45.24
2019-04-11T18:22:20.966Z,45.60
2019-04-11T18:24:52.752Z,45.58
2019-04-11T18:27:24.557Z,45.17
2019-04-11T18:29:56.353Z,45.25
2019-04-11T18:32:28.191Z,45.12
2019-04-11T18:35:02.397Z,45.53
2019-04-11T18:37:33.626Z,45.34
2019-04-11T18:40:10.030Z,45.43
2019-04-11T18:42:39.366Z,45.54
2019-04-11T18:45:15.007Z,45.24
2019-04-11T18:47:47.796Z,45.68
2019-04-11T18:50:22.709Z,45.40
2019-04-11T18:52:53.764Z,45.71
2019-04-11T18:55:28.980Z,45.59
2019-04-11T18:58:04.625Z,45.20
2019-04-11T19:00:38.423Z,45.29
2019-04-11T19:03:10.823Z,45.40
2019-04-11T19:05:43.510Z,45.20
2019-04-11T19:08:17.244Z,45.28
2019-04-11T19:10:50.361Z,44.83
2019-04-11T19:13:22.496Z,44.79
2019-04-11T19:15:54.356Z,44.71
2019-04-11T19:18:26.243Z,44.78
2019-04-11T19:20:58.113Z,45.14
2019-04-11T19:23:29.980Z,45.21
2019-04-11T19:26:04.884Z,45.38
2019-04-11T19:28:37.079Z,45.44
2019-04-11T19:31:08.990Z,45.25
2019-04-11T19:33:40.904Z,45.34
2019-04-11T19:36:12.941Z,45.09
2019-04-11T19:38:44.784Z,45.09
2019-04-11T19:41:18.004Z,45.58
2019-04-11T19:43:51.212Z,45.75
2019-04-11T19:46:22.976Z,45.69
2019-04-11T19:48:57.033Z,45.65
2019-04-11T19:51:28.951Z,45.62
2019-04-11T19:54:03.383Z,45.46
2019-04-11T19:56:43.214Z,45.79
2019-04-11T19:59:15.165Z,45.82
2019-04-11T20:01:47.117Z,46.00
2019-04-11T20:04:18.894Z,46.14
2019-04-11T20:06:50.757Z,45.98
2019-04-11T20:09:22.736Z,46.21
2019-04-11T20:11:54.443Z,46.17
2019-04-11T20:14:26.160Z,46.20
2019-04-11T20:16:58.262Z,46.38
2019-04-11T20:19:30.053Z,46.27
2019-04-11T20:22:01.779Z,46.47
2019-04-11T20:24:34.592Z,46.85
2019-04-11T20:27:06.375Z,46.50
2019-04-11T20:29:38.149Z,46.64
2019-04-11T20:32:10.020Z,46.58
2019-04-11T20:34:41.803Z,46.61
2019-04-11T20:37:13.799Z,46.69
2019-04-11T20:39:47.260Z,46.52
2019-04-11T20:42:19.490Z,46.55
2019-04-11T20:44:51.347Z,46.88
2019-04-11T20:47:23.209Z,46.88
2019-04-11T20:49:55.136Z,46.79
2019-04-11T20:52:27.378Z,46.88
2019-04-11T20:54:59.222Z,46.94
2019-04-11T20:57:31.014Z,47.15
2019-04-11T21:00:02.778Z,47.21
2019-04-11T21:02:36.454Z,47.08
2019-04-11T21:05:08.205Z,47.36
2019-04-11T21:07:40.105Z,47.47
2019-04-11T21:10:12.097Z,47.61
2019-04-11T21:12:44.113Z,47.71
2019-04-11T21:15:16.175Z,47.78
2019-04-11T21:17:47.929Z,47.68
2019-04-11T21:20:23.504Z,47.95
2019-04-11T21:22:53.983Z,47.96
2019-04-11T21:25:28.567Z,48.24
2019-04-11T21:28:00.039Z,48.52
2019-04-11T21:30:32.920Z,48.60
2019-04-11T21:33:04.717Z,48.82
2019-04-11T21:35:36.604Z,49.05
2019-04-11T21:38:08.279Z,49.18
2019-04-11T21:40:40.079Z,49.27
2019-04-11T21:43:11.835Z,49.31
2019-04-11T21:45:44.482Z,49.23
2019-04-11T21:48:16.489Z,49.53
2019-04-11T21:50:48.440Z,49.52
2019-04-11T21:53:20.262Z,49.44
2019-04-11T21:55:52.290Z,49.62
2019-04-11T21:58:24.060Z,49.46
2019-04-11T22:01:01.599Z,49.37
2019-04-11T22:03:34.899Z,49.28
2019-04-11T22:06:06.648Z,49.62
2019-04-11T22:08:38.418Z,49.56
2019-04-11T22:11:10.772Z,49.66
2019-04-11T22:13:42.618Z,49.84
2019-04-11T22:16:14.526Z,50.18
2019-04-11T22:18:46.437Z,49.96
2019-04-11T22:21:18.423Z,49.81
2019-04-11T22:23:50.238Z,50.01
2019-04-11T22:26:22.267Z,49.79
2019-04-11T22:28:55.184Z,49.91
2019-04-11T22:31:27.511Z,50.31
2019-04-11T22:34:07.090Z,50.03
2019-04-11T22:36:38.950Z,50.04
2019-04-11T22:39:11.596Z,50.10
2019-04-11T22:41:43.527Z,50.15
2019-04-11T22:44:15.624Z,50.38
2019-04-11T22:46:47.418Z,50.30
2019-04-11T22:49:19.549Z,50.27
2019-04-11T22:51:51.349Z,50.51
2019-04-11T22:54:23.137Z,50.42
2019-04-11T22:56:54.942Z,50.51
2019-04-11T22:59:26.617Z,50.34
2019-04-11T23:02:05.470Z,50.24
2019-04-11T23:04:37.348Z,50.17
2019-04-11T23:07:09.211Z,50.37
2019-04-11T23:09:41.056Z,50.34
2019-04-11T23:12:15.223Z,50.20
2019-04-11T23:14:46.629Z,50.08
2019-04-11T23:17:18.575Z,49.68
2019-04-11T23:19:50.374Z,49.41
2019-04-11T23:22:22.308Z,49.56
2019-04-11T23:24:54.130Z,49.50
2019-04-11T23:27:25.910Z,49.31
2019-04-11T23:29:57.690Z,49.31
2019-04-11T23:32:29.470Z,48.65
2019-04-11T23:35:01.150Z,48.80
2019-04-11T23:37:35.557Z,48.23
2019-04-11T23:40:07.460Z,48.17
2019-04-11T23:42:39.314Z,48.21
2019-04-11T23:45:11.096Z,47.90
2019-04-11T23:47:42.880Z,47.56
2019-04-11T23:50:14.552Z,47.86
2019-04-11T23:52:46.483Z,47.05
2019-04-11T23:55:18.434Z,47.17
2019-04-11T23:57:51.475Z,46.81
